PWSweather.com
Personal Weather Stations
Station Observations
MBORO100
Brandywood , Murfreesboro, TN 37130

Brandywood Murfreesboro, TN 37130

Lat: 35.908093, Lon: -86.31352

Elevation: 690

Station Type: Davis

Latest ConditionsUpdated 7:55:00 PM CST Sunday, Feb 18, 2018
Currently Today's Max Today's Min Today's Average
Temperature 56.6°F13.7°C 61.8°F16.6°C 34.8°F1.6°C 47.8°F8.8°C
Dew Point 44.6°F7.0°C 44.6°F7.0°C 33.5°F0.8°C 38.2°F3.4°C
Winds 3.5 mph S5.6 kmh S 3.5 mph N5.6 kmh N - 0.7 mph 1.1 kmh
Wind Gusts 3.5 mph5.6 kmh 5.8 mph9.3 kmh - -
Humidity 64% 98% 42% 73%
Pressure 30.17 in1021.7 mb 30.35 in1027.8 mb 30.16 in1021.3 mb -
Hour Temp Dew Point Humidity Winds Wind Gusts Pressure Precip Precip Rate Daily Precip Total
07:55 PM 56.6°F13.7°C 44.6°F7.0°C 64% 3.5 mph S5.6 kmh S 3.5 mph5.6 kmh 30.17 in1021.7 mb - 0.00 in0.0 mm 0.00 in0.0 mm
07:50 PM 56.9°F13.8°C 43.6°F6.4°C 61% 2.3 mph SSE3.7 kmh SSE 3.5 mph5.6 kmh 30.16 in1021.3 mb - 0.00 in0.0 mm 0.00 in0.0 mm
07:45 PM 57.3°F14.1°C 43.1°F6.2°C 59% 2.3 mph SSE3.7 kmh SSE 3.5 mph5.6 kmh 30.16 in1021.3 mb - 0.00 in0.0 mm 0.00 in0.0 mm
07:40 PM 57.6°F14.2°C 42.0°F5.6°C 56% 2.3 mph S3.7 kmh S 3.5 mph5.6 kmh 30.16 in1021.3 mb - 0.00 in0.0 mm 0.00 in0.0 mm
07:35 PM 57.8°F14.3°C 41.7°F5.4°C 55% 1.2 mph S1.9 kmh S 2.3 mph3.7 kmh 30.16 in1021.3 mb - 0.00 in0.0 mm 0.00 in0.0 mm
07:30 PM 57.8°F14.3°C 41.7°F5.4°C 55% 1.2 mph SSE1.9 kmh SSE 2.3 mph3.7 kmh 30.16 in1021.3 mb - 0.00 in0.0 mm 0.00 in0.0 mm
07:25 PM 57.6°F14.2°C 42.0°F5.6°C 56% Calm Calm 1.2 mph1.9 kmh 30.17 in1021.7 mb - 0.00 in0.0 mm 0.00 in0.0 mm
07:20 PM 57.5°F14.2°C 41.9°F5.5°C 56% Calm Calm -- 30.17 in1021.7 mb - 0.00 in0.0 mm 0.00 in0.0 mm
07:15 PM 57.5°F14.2°C 41.4°F5.2°C 55% Calm Calm -- 30.17 in1021.7 mb - 0.00 in0.0 mm 0.00 in0.0 mm
07:10 PM 57.7°F14.3°C 41.1°F5.1°C 54% Calm Calm -- 30.18 in1022.0 mb - 0.00 in0.0 mm 0.00 in0.0 mm
07:00 PM 57.7°F14.3°C 40.6°F4.8°C 53% Calm Calm -- 30.18 in1022.0 mb - 0.00 in0.0 mm 0.00 in0.0 mm
06:55 PM 57.4°F14.1°C 41.3°F5.2°C 55% Calm Calm -- 30.17 in1021.7 mb - 0.00 in0.0 mm 0.00 in0.0 mm
06:50 PM 57.3°F14.1°C 41.7°F5.4°C 56% Calm Calm -- 30.18 in1022.0 mb - 0.00 in0.0 mm 0.00 in0.0 mm
06:45 PM 57.7°F14.3°C 41.6°F5.3°C 55% Calm Calm -- 30.18 in1022.0 mb - 0.00 in0.0 mm 0.00 in0.0 mm
06:40 PM 57.8°F14.3°C 40.8°F4.9°C 53% Calm Calm -- 30.18 in1022.0 mb - 0.00 in0.0 mm 0.00 in0.0 mm
06:35 PM 58.0°F14.4°C 41.4°F5.2°C 54% Calm Calm 1.2 mph1.9 kmh 30.18 in1022.0 mb - 0.00 in0.0 mm 0.00 in0.0 mm
06:30 PM 58.0°F14.4°C 40.4°F4.7°C 52% Calm Calm -- 30.17 in1021.7 mb - 0.00 in0.0 mm 0.00 in0.0 mm
06:25 PM 57.7°F14.3°C 41.2°F5.1°C 54% Calm Calm -- 30.17 in1021.7 mb - 0.00 in0.0 mm 0.00 in0.0 mm
06:20 PM 57.8°F14.3°C 41.7°F5.4°C 55% Calm Calm -- 30.17 in1021.7 mb - 0.00 in0.0 mm 0.00 in0.0 mm
06:15 PM 58.2°F14.6°C 41.1°F5.1°C 53% Calm Calm -- 30.18 in1022.0 mb - 0.00 in0.0 mm 0.00 in0.0 mm
06:10 PM 58.6°F14.8°C 40.6°F4.8°C 51% Calm Calm -- 30.17 in1021.7 mb - 0.00 in0.0 mm 0.00 in0.0 mm
06:00 PM 59.1°F15.1°C 40.0°F4.4°C 49% Calm Calm -- 30.17 in1021.7 mb - 0.00 in0.0 mm 0.00 in0.0 mm
05:55 PM 59.3°F15.2°C 39.6°F4.2°C 48% Calm Calm 1.2 mph1.9 kmh 30.17 in1021.7 mb - 0.00 in0.0 mm 0.00 in0.0 mm
05:50 PM 59.4°F15.2°C 39.2°F4.0°C 47% Calm Calm 1.2 mph1.9 kmh 30.17 in1021.7 mb - 0.00 in0.0 mm 0.00 in0.0 mm
05:45 PM 59.1°F15.1°C 39.4°F4.1°C 48% Calm Calm -- 30.17 in1021.7 mb - 0.00 in0.0 mm 0.00 in0.0 mm
05:40 PM 59.0°F15.0°C 39.9°F4.4°C 49% Calm Calm -- 30.17 in1021.7 mb - 0.00 in0.0 mm 0.00 in0.0 mm
05:35 PM 59.0°F15.0°C 40.4°F4.7°C 50% Calm Calm -- 30.17 in1021.7 mb - 0.00 in0.0 mm 0.00 in0.0 mm
05:30 PM 58.9°F14.9°C 40.3°F4.6°C 50% Calm Calm -- 30.17 in1021.7 mb - 0.00 in0.0 mm 0.00 in0.0 mm
05:25 PM 59.1°F15.1°C 41.4°F5.2°C 52% Calm Calm -- 30.17 in1021.7 mb - 0.00 in0.0 mm 0.00 in0.0 mm
05:20 PM 59.3°F15.2°C 41.7°F5.4°C 52% Calm Calm -- 30.16 in1021.3 mb - 0.00 in0.0 mm 0.00 in0.0 mm
05:15 PM 59.5°F15.3°C 41.4°F5.2°C 51% Calm Calm -- 30.17 in1021.7 mb - 0.00 in0.0 mm 0.00 in0.0 mm
05:10 PM 59.8°F15.4°C 41.2°F5.1°C 50% Calm Calm -- 30.17 in1021.7 mb - 0.00 in0.0 mm 0.00 in0.0 mm
05:00 PM 60.4°F15.8°C 41.2°F5.1°C 49% Calm Calm -- 30.17 in1021.7 mb - 0.00 in0.0 mm 0.00 in0.0 mm
04:55 PM 60.4°F15.8°C 41.1°F5.1°C 49% Calm Calm -- 30.17 in1021.7 mb - 0.00 in0.0 mm 0.00 in0.0 mm
04:50 PM 60.5°F15.8°C 41.7°F5.4°C 50% Calm Calm -- 30.17 in1021.7 mb - 0.00 in0.0 mm 0.00 in0.0 mm
04:45 PM 60.7°F15.9°C 40.9°F4.9°C 48% Calm Calm 1.2 mph1.9 kmh 30.17 in1021.7 mb - 0.00 in0.0 mm 0.00 in0.0 mm
04:40 PM 60.7°F15.9°C 40.9°F4.9°C 48% Calm Calm -- 30.17 in1021.7 mb - 0.00 in0.0 mm 0.00 in0.0 mm
04:35 PM 60.8°F16.0°C 41.0°F5.0°C 48% Calm Calm -- 30.17 in1021.7 mb - 0.00 in0.0 mm 0.00 in0.0 mm
04:30 PM 61.0°F16.1°C 41.2°F5.1°C 48% Calm Calm -- 30.18 in1022.0 mb - 0.00 in0.0 mm 0.00 in0.0 mm
04:25 PM 61.1°F16.2°C 40.7°F4.8°C 47% Calm Calm 2.3 mph3.7 kmh 30.18 in1022.0 mb - 0.00 in0.0 mm 0.00 in0.0 mm
04:20 PM 61.3°F16.3°C 41.4°F5.2°C 48% Calm Calm -- 30.18 in1022.0 mb - 0.00 in0.0 mm 0.00 in0.0 mm
04:15 PM 61.7°F16.5°C 40.7°F4.8°C 46% Calm Calm 1.2 mph1.9 kmh 30.18 in1022.0 mb - 0.00 in0.0 mm 0.00 in0.0 mm
04:10 PM 61.8°F16.6°C 40.2°F4.6°C 45% 1.2 mph S1.9 kmh S 1.2 mph1.9 kmh 30.18 in1022.0 mb - 0.00 in0.0 mm 0.00 in0.0 mm
04:00 PM 61.6°F16.4°C 41.7°F5.4°C 48% 1.2 mph S1.9 kmh S 1.2 mph1.9 kmh 30.18 in1022.0 mb - 0.00 in0.0 mm 0.00 in0.0 mm
03:55 PM 60.9°F16.1°C 41.6°F5.3°C 49% Calm Calm 1.2 mph1.9 kmh 30.18 in1022.0 mb - 0.00 in0.0 mm 0.00 in0.0 mm
03:50 PM 60.3°F15.7°C 41.6°F5.3°C 50% Calm Calm -- 30.18 in1022.0 mb - 0.00 in0.0 mm 0.00 in0.0 mm
03:45 PM 59.9°F15.5°C 40.7°F4.8°C 49% Calm Calm 2.3 mph3.7 kmh 30.18 in1022.0 mb - 0.00 in0.0 mm 0.00 in0.0 mm
03:40 PM 59.8°F15.4°C 41.1°F5.1°C 50% Calm Calm -- 30.18 in1022.0 mb - 0.00 in0.0 mm 0.00 in0.0 mm
03:35 PM 60.0°F15.6°C 41.3°F5.2°C 50% Calm Calm -- 30.18 in1022.0 mb - 0.00 in0.0 mm 0.00 in0.0 mm
03:30 PM 60.3°F15.7°C 40.5°F4.7°C 48% 1.2 mph SE1.9 kmh SE 1.2 mph1.9 kmh 30.18 in1022.0 mb - 0.00 in0.0 mm 0.00 in0.0 mm
03:25 PM 60.3°F15.7°C 40.5°F4.7°C 48% Calm Calm 1.2 mph1.9 kmh 30.18 in1022.0 mb - 0.00 in0.0 mm 0.00 in0.0 mm
03:20 PM 59.9°F15.5°C 41.2°F5.1°C 50% Calm Calm 1.2 mph1.9 kmh 30.19 in1022.4 mb - 0.00 in0.0 mm 0.00 in0.0 mm
03:15 PM 59.6°F15.3°C 39.9°F4.4°C 48% 1.2 mph SSE1.9 kmh SSE 2.3 mph3.7 kmh 30.19 in1022.4 mb - 0.00 in0.0 mm 0.00 in0.0 mm
03:10 PM 59.6°F15.3°C 39.9°F4.4°C 48% Calm Calm 1.2 mph1.9 kmh 30.19 in1022.4 mb - 0.00 in0.0 mm 0.00 in0.0 mm
03:00 PM 59.8°F15.4°C 40.1°F4.5°C 48% 1.2 mph ESE1.9 kmh ESE 2.3 mph3.7 kmh 30.19 in1022.4 mb - 0.00 in0.0 mm 0.00 in0.0 mm
02:55 PM 60.4°F15.8°C 41.1°F5.1°C 49% 1.2 mph ESE1.9 kmh ESE 3.5 mph5.6 kmh 30.20 in1022.7 mb - 0.00 in0.0 mm 0.00 in0.0 mm
02:50 PM 59.8°F15.4°C 39.6°F4.2°C 47% 1.2 mph E1.9 kmh E 1.2 mph1.9 kmh 30.20 in1022.7 mb - 0.00 in0.0 mm 0.00 in0.0 mm
02:45 PM 59.6°F15.3°C 39.3°F4.1°C 47% 2.3 mph SE3.7 kmh SE 3.5 mph5.6 kmh 30.20 in1022.7 mb - 0.00 in0.0 mm 0.00 in0.0 mm
02:40 PM 59.4°F15.2°C 39.7°F4.3°C 48% 1.2 mph ESE1.9 kmh ESE 3.5 mph5.6 kmh 30.21 in1023.0 mb - 0.00 in0.0 mm 0.00 in0.0 mm
02:35 PM 59.5°F15.3°C 39.8°F4.3°C 48% 2.3 mph SE3.7 kmh SE 3.5 mph5.6 kmh 30.21 in1023.0 mb - 0.00 in0.0 mm 0.00 in0.0 mm
02:30 PM 59.3°F15.2°C 40.1°F4.5°C 49% 1.2 mph E1.9 kmh E 3.5 mph5.6 kmh 30.21 in1023.0 mb - 0.00 in0.0 mm 0.00 in0.0 mm
02:25 PM 59.1°F15.1°C 38.9°F3.8°C 47% 1.2 mph S1.9 kmh S 3.5 mph5.6 kmh 30.21 in1023.0 mb - 0.00 in0.0 mm 0.00 in0.0 mm
02:20 PM 59.0°F15.0°C 38.8°F3.8°C 47% Calm Calm 1.2 mph1.9 kmh 30.21 in1023.0 mb - 0.00 in0.0 mm 0.00 in0.0 mm
02:15 PM 58.8°F14.9°C 39.2°F4.0°C 48% 2.3 mph SE3.7 kmh SE 3.5 mph5.6 kmh 30.21 in1023.0 mb - 0.00 in0.0 mm 0.00 in0.0 mm
02:10 PM 58.6°F14.8°C 38.5°F3.6°C 47% 1.2 mph SSE1.9 kmh SSE 2.3 mph3.7 kmh 30.21 in1023.0 mb - 0.00 in0.0 mm 0.00 in0.0 mm
02:00 PM 58.9°F14.9°C 38.2°F3.4°C 46% 1.2 mph SE1.9 kmh SE 4.6 mph7.4 kmh 30.21 in1023.0 mb - 0.00 in0.0 mm 0.00 in0.0 mm
01:55 PM 58.6°F14.8°C 40.0°F4.4°C 50% 2.3 mph SE3.7 kmh SE 4.6 mph7.4 kmh 30.21 in1023.0 mb - 0.00 in0.0 mm 0.00 in0.0 mm
01:50 PM 58.2°F14.6°C 37.5°F3.1°C 46% 1.2 mph SE1.9 kmh SE 3.5 mph5.6 kmh 30.21 in1023.0 mb - 0.00 in0.0 mm 0.00 in0.0 mm
01:45 PM 58.2°F14.6°C 37.5°F3.1°C 46% 1.2 mph SSW1.9 kmh SSW 5.8 mph9.3 kmh 30.21 in1023.0 mb - 0.00 in0.0 mm 0.00 in0.0 mm
01:40 PM 58.5°F14.7°C 36.0°F2.2°C 43% 2.3 mph SE3.7 kmh SE 3.5 mph5.6 kmh 30.21 in1023.0 mb - 0.00 in0.0 mm 0.00 in0.0 mm
01:35 PM 58.2°F14.6°C 37.5°F3.1°C 46% 1.2 mph NE1.9 kmh NE 3.5 mph5.6 kmh 30.22 in1023.4 mb - 0.00 in0.0 mm 0.00 in0.0 mm
01:30 PM 58.0°F14.4°C 36.7°F2.6°C 45% 2.3 mph NE3.7 kmh NE 3.5 mph5.6 kmh 30.22 in1023.4 mb - 0.00 in0.0 mm 0.00 in0.0 mm
01:25 PM 58.5°F14.7°C 36.1°F2.3°C 43% 3.5 mph SE5.6 kmh SE 5.8 mph9.3 kmh 30.23 in1023.7 mb - 0.00 in0.0 mm 0.00 in0.0 mm
01:20 PM 58.0°F14.4°C 36.8°F2.7°C 45% 1.2 mph SSE1.9 kmh SSE 2.3 mph3.7 kmh 30.23 in1023.7 mb - 0.00 in0.0 mm 0.00 in0.0 mm
01:15 PM 57.0°F13.9°C 35.2°F1.8°C 44% 1.2 mph SSE1.9 kmh SSE 3.5 mph5.6 kmh 30.23 in1023.7 mb - 0.00 in0.0 mm 0.00 in0.0 mm
01:10 PM 57.0°F13.9°C 35.9°F2.2°C 45% 2.3 mph NE3.7 kmh NE 3.5 mph5.6 kmh 30.24 in1024.0 mb - 0.00 in0.0 mm 0.00 in0.0 mm
01:00 PM 57.1°F13.9°C 35.4°F1.9°C 44% 2.3 mph SE3.7 kmh SE 3.5 mph5.6 kmh 30.25 in1024.4 mb - 0.00 in0.0 mm 0.00 in0.0 mm
12:55 PM 57.2°F14.0°C 36.6°F2.6°C 46% 1.2 mph SE1.9 kmh SE 3.5 mph5.6 kmh 30.25 in1024.4 mb - 0.00 in0.0 mm 0.00 in0.0 mm
12:50 PM 56.6°F13.7°C 36.1°F2.3°C 46% 3.5 mph SE5.6 kmh SE 3.5 mph5.6 kmh 30.25 in1024.4 mb - 0.00 in0.0 mm 0.00 in0.0 mm
12:45 PM 56.1°F13.4°C 35.0°F1.7°C 45% 2.3 mph SE3.7 kmh SE 3.5 mph5.6 kmh 30.25 in1024.4 mb - 0.00 in0.0 mm 0.00 in0.0 mm
12:40 PM 56.3°F13.5°C 33.5°F0.8°C 42% 3.5 mph SE5.6 kmh SE 5.8 mph9.3 kmh 30.26 in1024.7 mb - 0.00 in0.0 mm 0.00 in0.0 mm
12:35 PM 56.0°F13.3°C 36.1°F2.3°C 47% 1.2 mph E1.9 kmh E 3.5 mph5.6 kmh 30.26 in1024.7 mb - 0.00 in0.0 mm 0.00 in0.0 mm
12:30 PM 56.0°F13.3°C 34.4°F1.3°C 44% 2.3 mph SSE3.7 kmh SSE 5.8 mph9.3 kmh 30.27 in1025.1 mb - 0.00 in0.0 mm 0.00 in0.0 mm
12:25 PM 55.7°F13.2°C 34.1°F1.2°C 44% 2.3 mph SE3.7 kmh SE 3.5 mph5.6 kmh 30.27 in1025.1 mb - 0.00 in0.0 mm 0.00 in0.0 mm
12:20 PM 55.1°F12.8°C 35.8°F2.1°C 48% 1.2 mph SE1.9 kmh SE 5.8 mph9.3 kmh 30.27 in1025.1 mb - 0.00 in0.0 mm 0.00 in0.0 mm
12:15 PM 54.8°F12.7°C 33.9°F1.1°C 45% 2.3 mph SE3.7 kmh SE 3.5 mph5.6 kmh 30.27 in1025.1 mb - 0.00 in0.0 mm 0.00 in0.0 mm
12:10 PM 54.9°F12.7°C 36.1°F2.3°C 49% 2.3 mph SE3.7 kmh SE 4.6 mph7.4 kmh 30.27 in1025.1 mb - 0.00 in0.0 mm 0.00 in0.0 mm
12:00 PM 54.0°F12.2°C 36.8°F2.7°C 52% 1.2 mph ESE1.9 kmh ESE 1.2 mph1.9 kmh 30.27 in1025.1 mb - 0.00 in0.0 mm 0.00 in0.0 mm
11:55 AM 53.8°F12.1°C 37.0°F2.8°C 53% 2.3 mph E3.7 kmh E 3.5 mph5.6 kmh 30.27 in1025.1 mb - 0.00 in0.0 mm 0.00 in0.0 mm
11:50 AM 53.7°F12.1°C 37.0°F2.8°C 53% 2.3 mph N3.7 kmh N 3.5 mph5.6 kmh 30.28 in1025.4 mb - 0.00 in0.0 mm 0.00 in0.0 mm
11:45 AM 53.8°F12.1°C 39.0°F3.9°C 57% Calm Calm 2.3 mph3.7 kmh 30.29 in1025.7 mb - 0.00 in0.0 mm 0.00 in0.0 mm
11:40 AM 53.2°F11.8°C 38.3°F3.5°C 57% 2.3 mph SSE3.7 kmh SSE 4.6 mph7.4 kmh 30.29 in1025.7 mb - 0.00 in0.0 mm 0.00 in0.0 mm
11:35 AM 53.0°F11.7°C 38.6°F3.7°C 58% 2.3 mph SE3.7 kmh SE 3.5 mph5.6 kmh 30.29 in1025.7 mb - 0.00 in0.0 mm 0.00 in0.0 mm
11:30 AM 52.6°F11.4°C 38.6°F3.7°C 59% 1.2 mph E1.9 kmh E 3.5 mph5.6 kmh 30.30 in1026.1 mb - 0.00 in0.0 mm 0.00 in0.0 mm
11:25 AM 52.2°F11.2°C 37.9°F3.3°C 58% 2.3 mph S3.7 kmh S 3.5 mph5.6 kmh 30.30 in1026.1 mb - 0.00 in0.0 mm 0.00 in0.0 mm
11:20 AM 52.1°F11.2°C 38.6°F3.7°C 60% 2.3 mph NE3.7 kmh NE 4.6 mph7.4 kmh 30.30 in1026.1 mb - 0.00 in0.0 mm 0.00 in0.0 mm
11:15 AM 51.7°F10.9°C 38.7°F3.7°C 61% 3.5 mph ESE5.6 kmh ESE 3.5 mph5.6 kmh 30.31 in1026.4 mb - 0.00 in0.0 mm 0.00 in0.0 mm
11:10 AM 51.6°F10.9°C 39.8°F4.3°C 64% 1.2 mph E1.9 kmh E 3.5 mph5.6 kmh 30.31 in1026.4 mb - 0.00 in0.0 mm 0.00 in0.0 mm
11:00 AM 50.4°F10.2°C 38.6°F3.7°C 64% 1.2 mph SE1.9 kmh SE 3.5 mph5.6 kmh 30.31 in1026.4 mb - 0.00 in0.0 mm 0.00 in0.0 mm
10:55 AM 49.8°F9.9°C 40.0°F4.4°C 69% 2.3 mph SE3.7 kmh SE 3.5 mph5.6 kmh 30.31 in1026.4 mb - 0.00 in0.0 mm 0.00 in0.0 mm
10:50 AM 49.6°F9.8°C 39.4°F4.1°C 68% 1.2 mph SSE1.9 kmh SSE 3.5 mph5.6 kmh 30.31 in1026.4 mb - 0.00 in0.0 mm 0.00 in0.0 mm
10:45 AM 49.3°F9.6°C 40.0°F4.4°C 70% 2.3 mph NE3.7 kmh NE 3.5 mph5.6 kmh 30.32 in1026.8 mb - 0.00 in0.0 mm 0.00 in0.0 mm
10:40 AM 48.7°F9.3°C 39.7°F4.3°C 71% 1.2 mph SE1.9 kmh SE 3.5 mph5.6 kmh 30.32 in1026.8 mb - 0.00 in0.0 mm 0.00 in0.0 mm
10:35 AM 48.3°F9.1°C 39.3°F4.1°C 71% 3.5 mph N5.6 kmh N 3.5 mph5.6 kmh 30.32 in1026.8 mb - 0.00 in0.0 mm 0.00 in0.0 mm
10:30 AM 48.2°F9.0°C 40.0°F4.4°C 73% 1.2 mph NE1.9 kmh NE 2.3 mph3.7 kmh 30.33 in1027.1 mb - 0.00 in0.0 mm 0.00 in0.0 mm
10:25 AM 48.2°F9.0°C 40.7°F4.8°C 75% 1.2 mph E1.9 kmh E 3.5 mph5.6 kmh 30.33 in1027.1 mb - 0.00 in0.0 mm 0.00 in0.0 mm
10:20 AM 47.5°F8.6°C 39.6°F4.2°C 74% 1.2 mph E1.9 kmh E 2.3 mph3.7 kmh 30.33 in1027.1 mb - 0.00 in0.0 mm 0.00 in0.0 mm
10:15 AM 47.0°F8.3°C 39.1°F3.9°C 74% 2.3 mph NE3.7 kmh NE 3.5 mph5.6 kmh 30.33 in1027.1 mb - 0.00 in0.0 mm 0.00 in0.0 mm
10:10 AM 46.6°F8.1°C 39.8°F4.3°C 77% 2.3 mph NE3.7 kmh NE 3.5 mph5.6 kmh 30.33 in1027.1 mb - 0.00 in0.0 mm 0.00 in0.0 mm
10:00 AM 45.8°F7.7°C 39.3°F4.1°C 78% 1.2 mph NE1.9 kmh NE 3.5 mph5.6 kmh 30.33 in1027.1 mb - 0.00 in0.0 mm 0.00 in0.0 mm
09:55 AM 45.5°F7.5°C 39.7°F4.3°C 80% Calm Calm 3.5 mph5.6 kmh 30.33 in1027.1 mb - 0.00 in0.0 mm 0.00 in0.0 mm
09:50 AM 45.4°F7.4°C 39.9°F4.4°C 81% 1.2 mph N1.9 kmh N 2.3 mph3.7 kmh 30.33 in1027.1 mb - 0.00 in0.0 mm 0.00 in0.0 mm
09:45 AM 45.4°F7.4°C 39.6°F4.2°C 80% 2.3 mph NE3.7 kmh NE 3.5 mph5.6 kmh 30.33 in1027.1 mb - 0.00 in0.0 mm 0.00 in0.0 mm
09:40 AM 45.1°F7.3°C 39.9°F4.4°C 82% 1.2 mph ESE1.9 kmh ESE 3.5 mph5.6 kmh 30.33 in1027.1 mb - 0.00 in0.0 mm 0.00 in0.0 mm
09:35 AM 44.7°F7.1°C 39.9°F4.4°C 83% 1.2 mph NE1.9 kmh NE 2.3 mph3.7 kmh 30.34 in1027.4 mb - 0.00 in0.0 mm 0.00 in0.0 mm
09:30 AM 44.5°F6.9°C 40.0°F4.4°C 84% 2.3 mph NE3.7 kmh NE 3.5 mph5.6 kmh 30.34 in1027.4 mb - 0.00 in0.0 mm 0.00 in0.0 mm
09:25 AM 43.9°F6.6°C 39.7°F4.3°C 85% 1.2 mph E1.9 kmh E 3.5 mph5.6 kmh 30.34 in1027.4 mb - 0.00 in0.0 mm 0.00 in0.0 mm
09:20 AM 42.9°F6.1°C 39.0°F3.9°C 86% 2.3 mph NNE3.7 kmh NNE 3.5 mph5.6 kmh 30.34 in1027.4 mb - 0.00 in0.0 mm 0.00 in0.0 mm
09:15 AM 42.8°F6.0°C 39.2°F4.0°C 87% 1.2 mph NE1.9 kmh NE 3.5 mph5.6 kmh 30.34 in1027.4 mb - 0.00 in0.0 mm 0.00 in0.0 mm
09:10 AM 42.5°F5.8°C 38.9°F3.8°C 87% Calm Calm 3.5 mph5.6 kmh 30.34 in1027.4 mb - 0.00 in0.0 mm 0.00 in0.0 mm
09:00 AM 42.2°F5.7°C 39.5°F4.2°C 90% 1.2 mph NE1.9 kmh NE 3.5 mph5.6 kmh 30.34 in1027.4 mb - 0.00 in0.0 mm 0.00 in0.0 mm
08:55 AM 41.7°F5.4°C 39.0°F3.9°C 90% Calm Calm 3.5 mph5.6 kmh 30.34 in1027.4 mb - 0.00 in0.0 mm 0.00 in0.0 mm
08:50 AM 41.1°F5.1°C 38.6°F3.7°C 91% 2.3 mph E3.7 kmh E 3.5 mph5.6 kmh 30.34 in1027.4 mb - 0.00 in0.0 mm 0.00 in0.0 mm
08:45 AM 40.6°F4.8°C 38.2°F3.4°C 91% 1.2 mph E1.9 kmh E 2.3 mph3.7 kmh 30.34 in1027.4 mb - 0.00 in0.0 mm 0.00 in0.0 mm
08:40 AM 40.2°F4.6°C 38.0°F3.3°C 92% 1.2 mph N1.9 kmh N 3.5 mph5.6 kmh 30.34 in1027.4 mb - 0.00 in0.0 mm 0.00 in0.0 mm
08:35 AM 39.8°F4.3°C 37.7°F3.2°C 92% 1.2 mph NE1.9 kmh NE 3.5 mph5.6 kmh 30.34 in1027.4 mb - 0.00 in0.0 mm 0.00 in0.0 mm
08:30 AM 39.7°F4.3°C 37.9°F3.3°C 93% Calm Calm 3.5 mph5.6 kmh 30.34 in1027.4 mb - 0.00 in0.0 mm 0.00 in0.0 mm
08:25 AM 39.4°F4.1°C 37.9°F3.3°C 94% 1.2 mph E1.9 kmh E 2.3 mph3.7 kmh 30.35 in1027.8 mb - 0.00 in0.0 mm 0.00 in0.0 mm
08:20 AM 39.1°F3.9°C 37.5°F3.1°C 94% 1.2 mph NE1.9 kmh NE 3.5 mph5.6 kmh 30.35 in1027.8 mb - 0.00 in0.0 mm 0.00 in0.0 mm
08:15 AM 38.7°F3.7°C 37.7°F3.2°C 96% Calm Calm 2.3 mph3.7 kmh 30.35 in1027.8 mb - 0.00 in0.0 mm 0.00 in0.0 mm
08:10 AM 38.2°F3.4°C 37.4°F3.0°C 97% 1.2 mph NE1.9 kmh NE 2.3 mph3.7 kmh 30.35 in1027.8 mb - 0.00 in0.0 mm 0.00 in0.0 mm
08:00 AM 37.1°F2.8°C 36.6°F2.6°C 98% Calm Calm 1.2 mph1.9 kmh 30.35 in1027.8 mb - 0.00 in0.0 mm 0.00 in0.0 mm
07:55 AM 36.7°F2.6°C 36.2°F2.3°C 98% Calm Calm -- 30.35 in1027.8 mb - 0.00 in0.0 mm 0.00 in0.0 mm
07:50 AM 36.4°F2.4°C 35.6°F2.0°C 97% Calm Calm 2.3 mph3.7 kmh 30.35 in1027.8 mb - 0.00 in0.0 mm 0.00 in0.0 mm
07:45 AM 36.1°F2.3°C 35.3°F1.8°C 97% Calm Calm -- 30.34 in1027.4 mb - 0.00 in0.0 mm 0.00 in0.0 mm
07:40 AM 36.0°F2.2°C 35.3°F1.8°C 97% Calm Calm -- 30.34 in1027.4 mb - 0.00 in0.0 mm 0.00 in0.0 mm
07:35 AM 35.5°F1.9°C 34.7°F1.5°C 97% Calm Calm -- 30.34 in1027.4 mb - 0.00 in0.0 mm 0.00 in0.0 mm
07:30 AM 35.2°F1.8°C 34.5°F1.4°C 97% Calm Calm -- 30.34 in1027.4 mb - 0.00 in0.0 mm 0.00 in0.0 mm
07:25 AM 35.1°F1.7°C 34.3°F1.3°C 97% Calm Calm -- 30.34 in1027.4 mb - 0.00 in0.0 mm 0.00 in0.0 mm
07:20 AM 35.1°F1.7°C 34.3°F1.3°C 97% Calm Calm -- 30.34 in1027.4 mb - 0.00 in0.0 mm 0.00 in0.0 mm
07:15 AM 35.1°F1.7°C 34.3°F1.3°C 97% Calm Calm -- 30.34 in1027.4 mb - 0.00 in0.0 mm 0.00 in0.0 mm
07:10 AM 35.0°F1.7°C 34.3°F1.3°C 97% Calm Calm -- 30.34 in1027.4 mb - 0.00 in0.0 mm 0.00 in0.0 mm
07:00 AM 34.8°F1.6°C 34.0°F1.1°C 97% Calm Calm -- 30.34 in1027.4 mb - 0.00 in0.0 mm 0.00 in0.0 mm
06:55 AM 34.8°F1.6°C 34.0°F1.1°C 97% Calm Calm -- 30.34 in1027.4 mb - 0.00 in0.0 mm 0.00 in0.0 mm
06:50 AM 34.9°F1.6°C 34.1°F1.2°C 97% Calm Calm -- 30.34 in1027.4 mb - 0.00 in0.0 mm 0.00 in0.0 mm
06:45 AM 35.0°F1.7°C 33.9°F1.1°C 96% Calm Calm -- 30.33 in1027.1 mb - 0.00 in0.0 mm 0.00 in0.0 mm
06:40 AM 35.1°F1.7°C 34.1°F1.2°C 96% Calm Calm -- 30.33 in1027.1 mb - 0.00 in0.0 mm 0.00 in0.0 mm
06:35 AM 35.2°F1.8°C 34.5°F1.4°C 97% Calm Calm -- 30.33 in1027.1 mb - 0.00 in0.0 mm 0.00 in0.0 mm
06:30 AM 35.3°F1.8°C 34.5°F1.4°C 97% Calm Calm -- 30.33 in1027.1 mb - 0.00 in0.0 mm 0.00 in0.0 mm
06:25 AM 35.4°F1.9°C 34.6°F1.4°C 97% Calm Calm -- 30.33 in1027.1 mb - 0.00 in0.0 mm 0.00 in0.0 mm
06:20 AM 35.4°F1.9°C 34.4°F1.3°C 96% Calm Calm -- 30.33 in1027.1 mb - 0.00 in0.0 mm 0.00 in0.0 mm
06:15 AM 35.6°F2.0°C 34.5°F1.4°C 96% Calm Calm -- 30.33 in1027.1 mb - 0.00 in0.0 mm 0.00 in0.0 mm
06:10 AM 35.6°F2.0°C 34.6°F1.4°C 96% Calm Calm -- 30.33 in1027.1 mb - 0.00 in0.0 mm 0.00 in0.0 mm
06:00 AM 35.8°F2.1°C 34.8°F1.6°C 96% Calm Calm -- 30.33 in1027.1 mb - 0.00 in0.0 mm 0.00 in0.0 mm
05:55 AM 35.9°F2.2°C 34.8°F1.6°C 96% Calm Calm -- 30.33 in1027.1 mb - 0.00 in0.0 mm 0.00 in0.0 mm
05:50 AM 35.9°F2.2°C 35.1°F1.7°C 97% Calm Calm -- 30.33 in1027.1 mb - 0.00 in0.0 mm 0.00 in0.0 mm
05:45 AM 35.8°F2.1°C 35.1°F1.7°C 97% Calm Calm -- 30.33 in1027.1 mb - 0.00 in0.0 mm 0.00 in0.0 mm
05:40 AM 35.8°F2.1°C 35.0°F1.7°C 97% Calm Calm -- 30.33 in1027.1 mb - 0.00 in0.0 mm 0.00 in0.0 mm
05:35 AM 35.6°F2.0°C 34.8°F1.6°C 97% Calm Calm -- 30.33 in1027.1 mb - 0.00 in0.0 mm 0.00 in0.0 mm
05:30 AM 35.6°F2.0°C 34.8°F1.6°C 97% Calm Calm -- 30.33 in1027.1 mb - 0.00 in0.0 mm 0.00 in0.0 mm
05:25 AM 35.7°F2.1°C 34.9°F1.6°C 97% Calm Calm -- 30.33 in1027.1 mb - 0.00 in0.0 mm 0.00 in0.0 mm
05:20 AM 35.6°F2.0°C 34.8°F1.6°C 97% Calm Calm 1.2 mph1.9 kmh 30.33 in1027.1 mb - 0.00 in0.0 mm 0.00 in0.0 mm
05:15 AM 35.6°F2.0°C 34.6°F1.4°C 96% Calm Calm -- 30.33 in1027.1 mb - 0.00 in0.0 mm 0.00 in0.0 mm
05:10 AM 35.7°F2.1°C 34.6°F1.4°C 96% Calm Calm -- 30.33 in1027.1 mb - 0.00 in0.0 mm 0.00 in0.0 mm
05:00 AM 36.0°F2.2°C 34.9°F1.6°C 96% Calm Calm -- 30.33 in1027.1 mb - 0.00 in0.0 mm 0.00 in0.0 mm
04:55 AM 36.1°F2.3°C 35.0°F1.7°C 96% Calm Calm -- 30.33 in1027.1 mb - 0.00 in0.0 mm 0.00 in0.0 mm
04:50 AM 36.2°F2.3°C 35.2°F1.8°C 96% Calm Calm -- 30.33 in1027.1 mb - 0.00 in0.0 mm 0.00 in0.0 mm
04:45 AM 36.2°F2.3°C 35.2°F1.8°C 96% Calm Calm -- 30.32 in1026.8 mb - 0.00 in0.0 mm 0.00 in0.0 mm
04:40 AM 36.2°F2.3°C 35.2°F1.8°C 96% Calm Calm -- 30.32 in1026.8 mb - 0.00 in0.0 mm 0.00 in0.0 mm
04:35 AM 36.4°F2.4°C 35.4°F1.9°C 96% Calm Calm -- 30.31 in1026.4 mb - 0.00 in0.0 mm 0.00 in0.0 mm
04:30 AM 36.5°F2.5°C 35.5°F1.9°C 96% Calm Calm -- 30.32 in1026.8 mb - 0.00 in0.0 mm 0.00 in0.0 mm
04:25 AM 36.6°F2.6°C 35.6°F2.0°C 96% Calm Calm -- 30.31 in1026.4 mb - 0.00 in0.0 mm 0.00 in0.0 mm
04:20 AM 36.6°F2.6°C 35.6°F2.0°C 96% Calm Calm -- 30.31 in1026.4 mb - 0.00 in0.0 mm 0.00 in0.0 mm
04:15 AM 36.9°F2.7°C 35.8°F2.1°C 96% Calm Calm -- 30.31 in1026.4 mb - 0.00 in0.0 mm 0.00 in0.0 mm
04:10 AM 37.2°F2.9°C 36.1°F2.3°C 96% Calm Calm -- 30.31 in1026.4 mb - 0.00 in0.0 mm 0.00 in0.0 mm
04:00 AM 37.2°F2.9°C 36.2°F2.3°C 96% Calm Calm -- 30.30 in1026.1 mb - 0.00 in0.0 mm 0.00 in0.0 mm
03:55 AM 37.3°F2.9°C 36.3°F2.4°C 96% Calm Calm -- 30.30 in1026.1 mb - 0.00 in0.0 mm 0.00 in0.0 mm
03:50 AM 37.3°F2.9°C 36.0°F2.2°C 95% Calm Calm -- 30.30 in1026.1 mb - 0.00 in0.0 mm 0.00 in0.0 mm
03:45 AM 37.5°F3.1°C 36.2°F2.3°C 95% Calm Calm -- 30.30 in1026.1 mb - 0.00 in0.0 mm 0.00 in0.0 mm
03:40 AM 37.7°F3.2°C 36.4°F2.4°C 95% Calm Calm -- 30.30 in1026.1 mb - 0.00 in0.0 mm 0.00 in0.0 mm
03:35 AM 37.8°F3.2°C 36.5°F2.5°C 95% Calm Calm -- 30.30 in1026.1 mb - 0.00 in0.0 mm 0.00 in0.0 mm
03:30 AM 37.9°F3.3°C 36.6°F2.6°C 95% Calm Calm -- 30.30 in1026.1 mb - 0.00 in0.0 mm 0.00 in0.0 mm
03:25 AM 38.1°F3.4°C 36.8°F2.7°C 95% Calm Calm -- 30.30 in1026.1 mb - 0.00 in0.0 mm 0.00 in0.0 mm
03:20 AM 38.1°F3.4°C 36.8°F2.7°C 95% Calm Calm -- 30.30 in1026.1 mb - 0.00 in0.0 mm 0.00 in0.0 mm
03:15 AM 38.1°F3.4°C 36.5°F2.5°C 94% Calm Calm -- 30.30 in1026.1 mb - 0.00 in0.0 mm 0.00 in0.0 mm
03:10 AM 38.2°F3.4°C 36.9°F2.7°C 95% Calm Calm -- 30.30 in1026.1 mb - 0.00 in0.0 mm 0.00 in0.0 mm
03:00 AM 38.5°F3.6°C 36.9°F2.7°C 94% Calm Calm -- 30.30 in1026.1 mb - 0.00 in0.0 mm 0.00 in0.0 mm
02:55 AM 38.6°F3.7°C 37.0°F2.8°C 94% Calm Calm -- 30.30 in1026.1 mb - 0.00 in0.0 mm 0.00 in0.0 mm
02:50 AM 38.7°F3.7°C 37.1°F2.8°C 94% Calm Calm -- 30.30 in1026.1 mb - 0.00 in0.0 mm 0.00 in0.0 mm
02:45 AM 38.8°F3.8°C 37.2°F2.9°C 94% Calm Calm -- 30.30 in1026.1 mb - 0.00 in0.0 mm 0.00 in0.0 mm
02:40 AM 38.9°F3.8°C 37.3°F2.9°C 94% Calm Calm -- 30.30 in1026.1 mb - 0.00 in0.0 mm 0.00 in0.0 mm
02:35 AM 38.9°F3.8°C 37.3°F2.9°C 94% Calm Calm -- 30.30 in1026.1 mb - 0.00 in0.0 mm 0.00 in0.0 mm
02:30 AM 39.0°F3.9°C 37.4°F3.0°C 94% Calm Calm -- 30.30 in1026.1 mb - 0.00 in0.0 mm 0.00 in0.0 mm
02:25 AM 39.1°F3.9°C 37.3°F2.9°C 93% Calm Calm -- 30.31 in1026.4 mb - 0.00 in0.0 mm 0.00 in0.0 mm
02:20 AM 39.3°F4.1°C 37.4°F3.0°C 93% Calm Calm -- 30.30 in1026.1 mb - 0.00 in0.0 mm 0.00 in0.0 mm
02:15 AM 39.3°F4.1°C 37.4°F3.0°C 93% Calm Calm -- 30.30 in1026.1 mb - 0.00 in0.0 mm 0.00 in0.0 mm
02:10 AM 39.4°F4.1°C 37.5°F3.1°C 93% Calm Calm -- 30.31 in1026.4 mb - 0.00 in0.0 mm 0.00 in0.0 mm
02:00 AM 39.7°F4.3°C 37.8°F3.2°C 93% Calm Calm -- 30.31 in1026.4 mb - 0.00 in0.0 mm 0.00 in0.0 mm
01:55 AM 39.7°F4.3°C 37.6°F3.1°C 92% Calm Calm -- 30.31 in1026.4 mb - 0.00 in0.0 mm 0.00 in0.0 mm
01:50 AM 40.0°F4.4°C 37.8°F3.2°C 92% Calm Calm -- 30.31 in1026.4 mb - 0.00 in0.0 mm 0.00 in0.0 mm
01:45 AM 40.1°F4.5°C 38.0°F3.3°C 92% Calm Calm -- 30.31 in1026.4 mb - 0.00 in0.0 mm 0.00 in0.0 mm
01:40 AM 40.5°F4.7°C 38.0°F3.3°C 91% Calm Calm -- 30.30 in1026.1 mb - 0.00 in0.0 mm 0.00 in0.0 mm
01:35 AM 40.7°F4.8°C 38.2°F3.4°C 91% Calm Calm -- 30.30 in1026.1 mb - 0.00 in0.0 mm 0.00 in0.0 mm
01:30 AM 40.9°F4.9°C 38.5°F3.6°C 91% Calm Calm 2.3 mph3.7 kmh 30.30 in1026.1 mb - 0.00 in0.0 mm 0.00 in0.0 mm
01:25 AM 41.1°F5.1°C 39.0°F3.9°C 92% Calm Calm -- 30.30 in1026.1 mb - 0.00 in0.0 mm 0.00 in0.0 mm
01:20 AM 41.1°F5.1°C 39.3°F4.1°C 93% Calm Calm -- 30.30 in1026.1 mb - 0.00 in0.0 mm 0.00 in0.0 mm
01:15 AM 41.2°F5.1°C 39.3°F4.1°C 93% Calm Calm 2.3 mph3.7 kmh 30.30 in1026.1 mb - 0.00 in0.0 mm 0.00 in0.0 mm
01:10 AM 41.2°F5.1°C 39.3°F4.1°C 93% Calm Calm -- 30.30 in1026.1 mb - 0.00 in0.0 mm 0.00 in0.0 mm
01:00 AM 41.3°F5.2°C 39.2°F4.0°C 92% Calm Calm -- 30.30 in1026.1 mb - 0.00 in0.0 mm 0.00 in0.0 mm
12:55 AM 41.4°F5.2°C 39.2°F4.0°C 92% Calm Calm -- 30.30 in1026.1 mb - 0.00 in0.0 mm 0.00 in0.0 mm
12:50 AM 41.6°F5.3°C 39.5°F4.2°C 92% Calm Calm -- 30.29 in1025.7 mb - 0.00 in0.0 mm 0.00 in0.0 mm
12:45 AM 41.9°F5.5°C 39.5°F4.2°C 91% 1.2 mph NW1.9 kmh NW 2.3 mph3.7 kmh 30.29 in1025.7 mb - 0.00 in0.0 mm 0.00 in0.0 mm
12:40 AM 41.9°F5.5°C 39.5°F4.2°C 91% 1.2 mph NW1.9 kmh NW 2.3 mph3.7 kmh 30.29 in1025.7 mb - 0.00 in0.0 mm 0.00 in0.0 mm
12:35 AM 42.1°F5.6°C 39.6°F4.2°C 91% 1.2 mph N1.9 kmh N 2.3 mph3.7 kmh 30.29 in1025.7 mb - 0.00 in0.0 mm 0.00 in0.0 mm
12:30 AM 42.2°F5.7°C 39.5°F4.2°C 90% 2.3 mph NNW3.7 kmh NNW 3.5 mph5.6 kmh 30.29 in1025.7 mb - 0.00 in0.0 mm 0.00 in0.0 mm
12:25 AM 42.5°F5.8°C 39.8°F4.3°C 90% 2.3 mph NW3.7 kmh NW 3.5 mph5.6 kmh 30.29 in1025.7 mb - 0.00 in0.0 mm 0.00 in0.0 mm
12:20 AM 43.0°F6.1°C 40.3°F4.6°C 90% 2.3 mph NW3.7 kmh NW 3.5 mph5.6 kmh 30.29 in1025.7 mb - 0.00 in0.0 mm 0.00 in0.0 mm
12:15 AM 43.5°F6.4°C 40.8°F4.9°C 90% 2.3 mph NW3.7 kmh NW 3.5 mph5.6 kmh 30.29 in1025.7 mb - 0.00 in0.0 mm 0.00 in0.0 mm
12:10 AM 43.8°F6.6°C 41.3°F5.2°C 91% 2.3 mph NNW3.7 kmh NNW 3.5 mph5.6 kmh 30.29 in1025.7 mb - 0.00 in0.0 mm 0.00 in0.0 mm
12:00 AM 44.4°F6.9°C 42.2°F5.7°C 92% 2.3 mph NW3.7 kmh NW 3.5 mph5.6 kmh 30.28 in1025.4 mb - 0.00 in0.0 mm 0.00 in0.0 mm